Terminal Aerodrome Forecast
Issued by NWS

Home | Current Version | Previous Version | Text Only | Print | Product List | Glossary On
Versions: 1 2 3 4 5 6 7 8 9 10 11 12 13
000
FTUS42 KMLB 310500 RRA
TAFFPR
TAF
KFPR 310541Z 3106/0106 VRB03KT P6SM SCT080 BKN250
     FM311300 16004KT P6SM SCT020
     FM311700 10009KT P6SM VCTS BKN035CB
     FM312200 15009KT P6SM SCT040 BKN120
     FM010100 16005KT P6SM SCT060 BKN250=

USA.gov is the U.S. government's official web portal to all federal, state and local government web resources and services.